createdAt,value
2022-11-01T00:02:32.788Z,99102.5
2022-11-01T00:08:08.071Z,99109.9
2022-11-01T00:13:42.900Z,99115.1
2022-11-01T00:19:17.703Z,99120.4
2022-11-01T00:24:55.694Z,99119.7
2022-11-01T00:30:30.916Z,99113.6
2022-11-01T00:36:05.880Z,99114.8
2022-11-01T00:42:02.429Z,99114.9
2022-11-01T00:47:35.057Z,99115.8
2022-11-01T00:53:09.746Z,99119.3
2022-11-01T00:58:44.649Z,99123
2022-11-01T01:04:19.539Z,99120.8
2022-11-01T01:09:54.385Z,99122.1
2022-11-01T01:15:29.357Z,99127.4
2022-11-01T01:21:04.408Z,99126.5
2022-11-01T01:26:40.293Z,99134.6
2022-11-01T01:32:15.185Z,99136.7
2022-11-01T01:37:56.752Z,99141
2022-11-01T01:43:53.426Z,99151.8
2022-11-01T01:49:26.054Z,99148.1
2022-11-01T01:55:01.115Z,99153.2
2022-11-01T02:00:36.123Z,99159
2022-11-01T02:06:11.494Z,99161
2022-11-01T02:11:48.442Z,99160.8
2022-11-01T02:17:23.068Z,99156.6
2022-11-01T02:22:58.018Z,99157.4
2022-11-01T02:28:34.131Z,99157.5
2022-11-01T02:34:08.852Z,99152.4
2022-11-01T02:39:43.637Z,99145.2
2022-11-01T02:45:19.556Z,99146.6
2022-11-01T02:50:55.646Z,99145.4
2022-11-01T02:56:30.340Z,99146.6
2022-11-01T03:02:05.914Z,99143.2
2022-11-01T03:07:41.933Z,99148.8
2022-11-01T03:13:16.815Z,99155.1
2022-11-01T03:18:52.021Z,99159.4
2022-11-01T03:24:27.471Z,99164.5
2022-11-01T03:30:02.532Z,99164.2
2022-11-01T03:35:37.785Z,99166.6
2022-11-01T03:41:34.426Z,99166.8
2022-11-01T03:47:08.149Z,99169.8
2022-11-01T03:52:43.960Z,99168.9
2022-11-01T03:58:19.211Z,99168.9
2022-11-01T04:03:54.172Z,99175.1
2022-11-01T04:09:29.466Z,99180
2022-11-01T04:15:04.187Z,99174.2
2022-11-01T04:20:39.074Z,99175.2
2022-11-01T04:26:14.795Z,99176.2
2022-11-01T04:31:50.973Z,99179
2022-11-01T04:37:25.829Z,99186.5
2022-11-01T04:43:22.562Z,99185.2
2022-11-01T04:48:54.992Z,99188.6
2022-11-01T04:54:29.733Z,99196.1
2022-11-01T05:00:04.977Z,99199.5
2022-11-01T05:05:40.918Z,99199.7
2022-11-01T05:11:16.147Z,99194.6
2022-11-01T05:16:51.047Z,99196.9
2022-11-01T05:22:26.148Z,99199.5
2022-11-01T05:28:02.748Z,99197
2022-11-01T05:33:39.666Z,99198.7
2022-11-01T05:39:14.935Z,99197.3
2022-11-01T05:44:49.887Z,99192.2
2022-11-01T05:50:26.037Z,99180.4
2022-11-01T05:56:01.128Z,99183.2
2022-11-01T06:01:36.565Z,99187
2022-11-01T06:07:12.115Z,99185.4
2022-11-01T06:12:46.950Z,99185.4
2022-11-01T06:18:21.754Z,99182.7
2022-11-01T06:23:56.684Z,99178.1
2022-11-01T06:29:31.498Z,99176.8
2022-11-01T06:35:06.602Z,99176.1
2022-11-01T06:41:04.349Z,99179.1
2022-11-01T06:46:38.496Z,99184
2022-11-01T06:52:13.199Z,99183
2022-11-01T06:57:48.634Z,99190.6
2022-11-01T07:03:24.396Z,99202.7
2022-11-01T07:09:00.208Z,99208.6
2022-11-01T07:14:35.413Z,99206
2022-11-01T07:20:10.437Z,99216.9
2022-11-01T07:25:45.074Z,99218.9
2022-11-01T07:31:19.988Z,99221
2022-11-01T07:36:54.951Z,99225.8
2022-11-01T07:42:30.184Z,99236.3
2022-11-01T07:48:06.507Z,99236.6
2022-11-01T07:53:41.425Z,99238.7
2022-11-01T07:59:16.561Z,99252.2
2022-11-01T08:04:51.764Z,99261.2
2022-11-01T08:10:30.051Z,99267.1
2022-11-01T08:16:05.071Z,99275
2022-11-01T08:21:49.134Z,99280.6
2022-11-01T08:27:35.947Z,99285.5
2022-11-01T08:33:11.189Z,99281.7
2022-11-01T08:38:46.059Z,99289.3
2022-11-01T08:44:22.052Z,99296.4
2022-11-01T08:49:56.915Z,99299.7
2022-11-01T08:55:38.889Z,99301.4
2022-11-01T09:01:16.229Z,99300
2022-11-01T09:06:52.878Z,99303.1
2022-11-01T09:12:28.401Z,99301.1
2022-11-01T09:18:05.310Z,99305.7
2022-11-01T09:23:40.220Z,99306.3
2022-11-01T09:29:15.341Z,99308.6
2022-11-01T09:34:50.351Z,99311.8
2022-11-01T09:40:51.661Z,99318.9
2022-11-01T09:46:48.579Z,99320.1
2022-11-01T09:52:37.407Z,99319.6
2022-11-01T09:58:12.655Z,99319.3
2022-11-01T10:03:47.866Z,99318.8
2022-11-01T10:09:22.817Z,99322.3
2022-11-01T10:14:59.331Z,99322.9
2022-11-01T10:20:40.589Z,99323.4
2022-11-01T10:26:15.536Z,99324.3
2022-11-01T10:31:50.661Z,99318.5
2022-11-01T10:37:25.685Z,99312
2022-11-01T10:43:22.334Z,99317.9
2022-11-01T10:48:54.918Z,99319.6
2022-11-01T10:54:30.279Z,99323.2
2022-11-01T11:00:05.330Z,99325.2
2022-11-01T11:05:40.988Z,99324.7
2022-11-01T11:11:39.535Z,99318.8
2022-11-01T11:17:16.926Z,99310.3
2022-11-01T11:22:51.980Z,99306.3
2022-11-01T11:28:30.032Z,99302
2022-11-01T11:34:05.387Z,99299.6
2022-11-01T11:39:42.172Z,99296.7
2022-11-01T11:45:17.284Z,99291.7
2022-11-01T11:50:53.566Z,99285.5
2022-11-01T11:56:44.853Z,99280.6
2022-11-01T12:02:21.158Z,99275.1
2022-11-01T12:08:15.632Z,99274.3
2022-11-01T12:13:50.450Z,99272.4
2022-11-01T12:19:28.494Z,99273.9
2022-11-01T12:25:04.365Z,99265.7
2022-11-01T12:30:40.584Z,99260.3
2022-11-01T12:36:16.721Z,99257.2
2022-11-01T12:42:13.404Z,99247.4
2022-11-01T12:47:46.357Z,99244.8
2022-11-01T12:53:21.267Z,99237.9
2022-11-01T12:58:56.194Z,99232
2022-11-01T13:04:32.528Z,99219.9
2022-11-01T13:10:07.691Z,99211.8
2022-11-01T13:15:42.547Z,99215
2022-11-01T13:21:17.475Z,99202
2022-11-01T13:27:01.425Z,99205.5
2022-11-01T13:32:38.982Z,99200.2
2022-11-01T13:38:18.325Z,99200.7
2022-11-01T13:44:15.023Z,99196.5
2022-11-01T13:49:48.070Z,99195.2
2022-11-01T13:55:23.289Z,99203.6
2022-11-01T14:00:59.468Z,99205.9
2022-11-01T14:06:36.907Z,99209.5
2022-11-01T14:12:13.409Z,99208.1
2022-11-01T14:17:48.223Z,99214.4
2022-11-01T14:23:23.270Z,99215.2
2022-11-01T14:28:58.326Z,99212
2022-11-01T14:34:34.083Z,99211.8
2022-11-01T14:40:09.675Z,99214.8
2022-11-01T14:45:44.750Z,99218.2
2022-11-01T14:51:20.830Z,99218.5
2022-11-01T14:56:56.034Z,99220
2022-11-01T15:02:33.085Z,99223.8
2022-11-01T15:08:09.264Z,99229
2022-11-01T15:13:44.031Z,99228.2
2022-11-01T15:19:18.809Z,99233.1
2022-11-01T15:24:53.947Z,99230.2
2022-11-01T15:30:46.217Z,99224
2022-11-01T15:36:21.259Z,99225.3
2022-11-01T15:42:18.285Z,99231.3
2022-11-01T15:47:51.022Z,99230.1
2022-11-01T15:53:26.918Z,99233.6
2022-11-01T15:59:03.256Z,99227.6
2022-11-01T16:04:40.488Z,99234.5
2022-11-01T16:10:15.272Z,99239.9
2022-11-01T16:15:58.990Z,99239.8
2022-11-01T16:21:37.509Z,99243.6
2022-11-01T16:27:12.364Z,99244.2
2022-11-01T16:32:47.122Z,99250.3
2022-11-01T16:38:22.029Z,99251
2022-11-01T16:43:56.800Z,99259.3
2022-11-01T16:49:33.906Z,99258.4
2022-11-01T16:55:08.780Z,99259.6
2022-11-01T17:00:44.602Z,99258
2022-11-01T17:06:19.740Z,99261.2
2022-11-01T17:11:55.083Z,99260.7
2022-11-01T17:17:29.990Z,99264.9
2022-11-01T17:23:05.292Z,99263.2
2022-11-01T17:28:40.153Z,99276.2
2022-11-01T17:34:16.087Z,99286.1
2022-11-01T17:39:54.356Z,99291.9
2022-11-01T17:45:33.654Z,99300.1
2022-11-01T17:51:10.867Z,99310.8
2022-11-01T17:56:46.151Z,99318.7
2022-11-01T18:02:22.125Z,99327
2022-11-01T18:07:58.809Z,99330.9
2022-11-01T18:13:38.586Z,99333.8
2022-11-01T18:19:19.090Z,99341.9
2022-11-01T18:24:57.956Z,99346.4
2022-11-01T18:30:32.967Z,99354.5
2022-11-01T18:36:23.275Z,99360.8
2022-11-01T18:42:24.308Z,99365.6
2022-11-01T18:47:58.037Z,99372.1
2022-11-01T18:53:32.879Z,99380.5
2022-11-01T18:59:08.567Z,99389.9
2022-11-01T19:04:43.743Z,99392.4
2022-11-01T19:10:18.426Z,99397.9
2022-11-01T19:15:54.839Z,99404
2022-11-01T19:21:33.070Z,99407.1
2022-11-01T19:27:53.056Z,99410.8
2022-11-01T19:33:27.915Z,99415.8
2022-11-01T19:39:05.667Z,99417.2
2022-11-01T19:44:41.840Z,99418.3
2022-11-01T19:50:16.505Z,99418.3
2022-11-01T19:55:51.574Z,99422.4
2022-11-01T20:01:27.379Z,99429.4
2022-11-01T20:07:04.006Z,99438.3
2022-11-01T20:12:45.568Z,99445.8
2022-11-01T20:18:20.565Z,99451.1
2022-11-01T20:23:56.601Z,99459.3
2022-11-01T20:29:31.776Z,99464.3
2022-11-01T20:35:06.568Z,99468.3
2022-11-01T20:41:04.012Z,99474.9
2022-11-01T20:46:37.730Z,99488.3
2022-11-01T20:52:40.671Z,99488.4
2022-11-01T20:58:15.878Z,99493.3
2022-11-01T21:04:11.696Z,99499.8
2022-11-01T21:09:47.395Z,99511.2
2022-11-01T21:15:22.163Z,99517.1
2022-11-01T21:21:09.316Z,99523.3
2022-11-01T21:26:45.132Z,99527.6
2022-11-01T21:32:31.037Z,99533.8
2022-11-01T21:38:07.083Z,99540.4
2022-11-01T21:44:03.912Z,99548.1
2022-11-01T21:49:36.390Z,99550.5
2022-11-01T21:55:11.679Z,99546.9
2022-11-01T22:00:52.177Z,99553.4
2022-11-01T22:06:31.463Z,99557.6
2022-11-01T22:12:06.425Z,99563
2022-11-01T22:17:41.198Z,99568.9
2022-11-01T22:23:17.050Z,99571.3
2022-11-01T22:28:52.762Z,99571.3
2022-11-01T22:34:27.624Z,99571.2
2022-11-01T22:40:04.080Z,99572
2022-11-01T22:45:39.240Z,99577.8
2022-11-01T22:51:14.131Z,99571.4
2022-11-01T22:56:48.980Z,99580.5
2022-11-01T23:02:25.071Z,99577.7
2022-11-01T23:08:02.502Z,99574.2
2022-11-01T23:13:37.532Z,99573.5
2022-11-01T23:19:12.842Z,99581.8
2022-11-01T23:25:03.547Z,99585.3
2022-11-01T23:30:38.238Z,99581.4
2022-11-01T23:36:14.026Z,99577.9
2022-11-01T23:42:14.523Z,99579.1
2022-11-01T23:47:47.263Z,99575.2
2022-11-01T23:53:22.049Z,99570.8
2022-11-01T23:58:56.986Z,99566.4
